sensor_id;sensor_type;location;lat;lon;timestamp;pressure;altitude;pressure_sealevel;temperature
70819;BMP280;58439;51.046;13.692;2022-07-12T00:01:54;100745.81;;;15.10
70819;BMP280;58439;51.046;13.692;2022-07-12T00:34:57;100748.88;;;14.67
70819;BMP280;58439;51.046;13.692;2022-07-12T00:38:55;100750.88;;;14.65
70819;BMP280;58439;51.046;13.692;2022-07-12T00:51:55;100749.88;;;14.46
70819;BMP280;58439;51.046;13.692;2022-07-12T01:02:26;100765.91;;;14.52
70819;BMP280;58439;51.046;13.692;2022-07-12T01:12:34;100772.34;;;14.89
70819;BMP280;58439;51.046;13.692;2022-07-12T01:22:17;100776.38;;;15.18
70819;BMP280;58439;51.046;13.692;2022-07-12T01:25:19;100776.59;;;15.16
70819;BMP280;58439;51.046;13.692;2022-07-12T01:29:13;100779.44;;;15.15
70819;BMP280;58439;51.046;13.692;2022-07-12T01:32:34;100775.59;;;15.11
70819;BMP280;58439;51.046;13.692;2022-07-12T02:25:16;100810.66;;;15.76
70819;BMP280;58439;51.046;13.692;2022-07-12T02:32:54;100810.72;;;15.62
70819;BMP280;58439;51.046;13.692;2022-07-12T02:41:19;100819.69;;;15.48
70819;BMP280;58439;51.046;13.692;2022-07-12T02:57:27;100818.91;;;15.41
70819;BMP280;58439;51.046;13.692;2022-07-12T03:00:21;100811.44;;;15.38
70819;BMP280;58439;51.046;13.692;2022-07-12T03:09:28;100810.06;;;15.22
70819;BMP280;58439;51.046;13.692;2022-07-12T03:14:24;100811.06;;;15.15
70819;BMP280;58439;51.046;13.692;2022-07-12T03:34:09;100814.31;;;14.97
70819;BMP280;58439;51.046;13.692;2022-07-12T03:38:19;100813.91;;;14.93
70819;BMP280;58439;51.046;13.692;2022-07-12T03:42:22;100817.56;;;14.92
70819;BMP280;58439;51.046;13.692;2022-07-12T03:51:36;100825.66;;;15.04
70819;BMP280;58439;51.046;13.692;2022-07-12T04:09:36;100830.81;;;15.57
70819;BMP280;58439;51.046;13.692;2022-07-12T04:32:24;100855.63;;;15.43
70819;BMP280;58439;51.046;13.692;2022-07-12T06:47:02;100908.84;;;20.86
70819;BMP280;58439;51.046;13.692;2022-07-12T07:09:46;100919.50;;;20.52
70819;BMP280;58439;51.046;13.692;2022-07-12T07:13:18;100919.84;;;20.56
70819;BMP280;58439;51.046;13.692;2022-07-12T07:26:27;100912.00;;;20.49
70819;BMP280;58439;51.046;13.692;2022-07-12T07:36:18;100917.38;;;20.88
70819;BMP280;58439;51.046;13.692;2022-07-12T07:40:19;100920.47;;;20.80
70819;BMP280;58439;51.046;13.692;2022-07-12T07:44:07;100915.28;;;20.73
70819;BMP280;58439;51.046;13.692;2022-07-12T07:49:07;100916.38;;;20.72
70819;BMP280;58439;51.046;13.692;2022-07-12T07:52:08;100917.19;;;21.11
70819;BMP280;58439;51.046;13.692;2022-07-12T08:02:05;100914.63;;;22.83
70819;BMP280;58439;51.046;13.692;2022-07-12T08:05:12;100924.50;;;22.88
70819;BMP280;58439;51.046;13.692;2022-07-12T08:08:47;100916.66;;;22.71
70819;BMP280;58439;51.046;13.692;2022-07-12T08:12:29;100906.44;;;22.63
70819;BMP280;58439;51.046;13.692;2022-07-12T08:15:21;100904.00;;;22.51
70819;BMP280;58439;51.046;13.692;2022-07-12T08:18:59;100920.50;;;22.48
70819;BMP280;58439;51.046;13.692;2022-07-12T08:22:05;100911.19;;;22.18
70819;BMP280;58439;51.046;13.692;2022-07-12T08:25:37;100911.91;;;22.09
70819;BMP280;58439;51.046;13.692;2022-07-12T08:28:59;100914.63;;;22.19
70819;BMP280;58439;51.046;13.692;2022-07-12T08:33:15;100908.47;;;22.82
70819;BMP280;58439;51.046;13.692;2022-07-12T08:36:58;100903.56;;;23.22
70819;BMP280;58439;51.046;13.692;2022-07-12T08:40:07;100905.19;;;23.23
70819;BMP280;58439;51.046;13.692;2022-07-12T08:43:06;100901.97;;;23.21
70819;BMP280;58439;51.046;13.692;2022-07-12T08:45:53;100898.19;;;23.11
70819;BMP280;58439;51.046;13.692;2022-07-12T08:49:21;100892.03;;;23.11
70819;BMP280;58439;51.046;13.692;2022-07-12T09:27:59;100905.81;;;24.51
70819;BMP280;58439;51.046;13.692;2022-07-12T09:31:48;100896.50;;;24.44
70819;BMP280;58439;51.046;13.692;2022-07-12T09:35:14;100891.84;;;24.75
70819;BMP280;58439;51.046;13.692;2022-07-12T09:38:54;100887.25;;;24.85
70819;BMP280;58439;51.046;13.692;2022-07-12T09:41:35;100878.75;;;24.73
70819;BMP280;58439;51.046;13.692;2022-07-12T09:44:30;100879.88;;;24.57
70819;BMP280;58439;51.046;13.692;2022-07-12T09:47:19;100892.75;;;24.45
70819;BMP280;58439;51.046;13.692;2022-07-12T09:50:41;100890.59;;;24.32
70819;BMP280;58439;51.046;13.692;2022-07-12T09:53:17;100887.16;;;24.36
70819;BMP280;58439;51.046;13.692;2022-07-12T09:56:53;100887.06;;;24.62
70819;BMP280;58439;51.046;13.692;2022-07-12T09:59:41;100877.75;;;25.13
70819;BMP280;58439;51.046;13.692;2022-07-12T10:03:00;100883.56;;;25.31
70819;BMP280;58439;51.046;13.692;2022-07-12T10:05:34;100877.69;;;25.29
70819;BMP280;58439;51.046;13.692;2022-07-12T10:08:05;100879.50;;;25.38
70819;BMP280;58439;51.046;13.692;2022-07-12T10:10:42;100874.44;;;25.71
70819;BMP280;58439;51.046;13.692;2022-07-12T10:13:10;100883.03;;;25.97
70819;BMP280;58439;51.046;13.692;2022-07-12T10:16:02;100885.06;;;25.81
70819;BMP280;58439;51.046;13.692;2022-07-12T10:18:30;100882.06;;;25.87
70819;BMP280;58439;51.046;13.692;2022-07-12T10:21:26;100883.44;;;26.14
70819;BMP280;58439;51.046;13.692;2022-07-12T10:24:00;100875.00;;;26.02
70819;BMP280;58439;51.046;13.692;2022-07-12T10:26:37;100879.13;;;26.18
70819;BMP280;58439;51.046;13.692;2022-07-12T10:29:07;100871.41;;;26.11
70819;BMP280;58439;51.046;13.692;2022-07-12T10:31:39;100870.94;;;25.75
70819;BMP280;58439;51.046;13.692;2022-07-12T10:34:14;100862.25;;;25.83
70819;BMP280;58439;51.046;13.692;2022-07-12T10:40:19;100862.03;;;25.46
70819;BMP280;58439;51.046;13.692;2022-07-12T10:45:37;100862.50;;;25.58
70819;BMP280;58439;51.046;13.692;2022-07-12T10:53:24;100864.22;;;25.78
70819;BMP280;58439;51.046;13.692;2022-07-12T10:56:24;100859.97;;;25.72
70819;BMP280;58439;51.046;13.692;2022-07-12T10:59:00;100859.34;;;26.09
70819;BMP280;58439;51.046;13.692;2022-07-12T11:01:30;100858.00;;;26.59
70819;BMP280;58439;51.046;13.692;2022-07-12T11:04:09;100850.03;;;26.73
70819;BMP280;58439;51.046;13.692;2022-07-12T11:06:41;100844.88;;;26.95
70819;BMP280;58439;51.046;13.692;2022-07-12T11:09:16;100859.22;;;27.09
70819;BMP280;58439;51.046;13.692;2022-07-12T11:11:49;100853.91;;;29.68
70819;BMP280;58439;51.046;13.692;2022-07-12T11:14:25;100852.69;;;31.63
70819;BMP280;58439;51.046;13.692;2022-07-12T11:16:54;100849.63;;;32.86
70819;BMP280;58439;51.046;13.692;2022-07-12T11:19:24;100858.75;;;30.71
70819;BMP280;58439;51.046;13.692;2022-07-12T11:21:53;100860.69;;;31.51
70819;BMP280;58439;51.046;13.692;2022-07-12T11:24:37;100860.84;;;31.93
70819;BMP280;58439;51.046;13.692;2022-07-12T11:27:05;100846.88;;;32.53
70819;BMP280;58439;51.046;13.692;2022-07-12T11:29:33;100852.56;;;35.45
70819;BMP280;58439;51.046;13.692;2022-07-12T11:32:03;100853.59;;;37.47
70819;BMP280;58439;51.046;13.692;2022-07-12T11:34:38;100846.00;;;36.43
70819;BMP280;58439;51.046;13.692;2022-07-12T11:37:06;100847.63;;;37.38
70819;BMP280;58439;51.046;13.692;2022-07-12T11:39:39;100851.03;;;35.83
70819;BMP280;58439;51.046;13.692;2022-07-12T11:42:08;100854.91;;;33.64
70819;BMP280;58439;51.046;13.692;2022-07-12T11:44:49;100848.38;;;36.44
70819;BMP280;58439;51.046;13.692;2022-07-12T11:47:19;100847.81;;;37.52
70819;BMP280;58439;51.046;13.692;2022-07-12T11:50:03;100842.06;;;37.05
70819;BMP280;58439;51.046;13.692;2022-07-12T11:52:54;100839.88;;;37.17
70819;BMP280;58439;51.046;13.692;2022-07-12T11:55:43;100845.50;;;35.44
70819;BMP280;58439;51.046;13.692;2022-07-12T11:58:31;100845.59;;;33.16
70819;BMP280;58439;51.046;13.692;2022-07-12T12:01:10;100853.03;;;33.52
70819;BMP280;58439;51.046;13.692;2022-07-12T12:03:45;100840.34;;;31.83
70819;BMP280;58439;51.046;13.692;2022-07-12T12:06:13;100862.84;;;29.77
70819;BMP280;58439;51.046;13.692;2022-07-12T12:08:42;100859.28;;;28.92
70819;BMP280;58439;51.046;13.692;2022-07-12T12:11:09;100862.22;;;28.68
70819;BMP280;58439;51.046;13.692;2022-07-12T12:13:36;100847.69;;;29.98
70819;BMP280;58439;51.046;13.692;2022-07-12T12:16:05;100857.38;;;29.60
70819;BMP280;58439;51.046;13.692;2022-07-12T12:18:38;100856.28;;;30.00
70819;BMP280;58439;51.046;13.692;2022-07-12T12:21:09;100847.94;;;30.53
70819;BMP280;58439;51.046;13.692;2022-07-12T12:23:38;100844.00;;;29.94
70819;BMP280;58439;51.046;13.692;2022-07-12T12:26:19;100844.38;;;32.48
70819;BMP280;58439;51.046;13.692;2022-07-12T12:28:52;100840.03;;;32.56
70819;BMP280;58439;51.046;13.692;2022-07-12T12:31:22;100858.72;;;35.27
70819;BMP280;58439;51.046;13.692;2022-07-12T12:33:53;100843.31;;;37.37
70819;BMP280;58439;51.046;13.692;2022-07-12T12:38:57;100836.94;;;33.72
70819;BMP280;58439;51.046;13.692;2022-07-12T12:41:26;100838.06;;;33.22
70819;BMP280;58439;51.046;13.692;2022-07-12T12:44:03;100838.44;;;32.13
70819;BMP280;58439;51.046;13.692;2022-07-12T12:46:53;100840.16;;;32.38
70819;BMP280;58439;51.046;13.692;2022-07-12T12:49:51;100845.00;;;32.66
70819;BMP280;58439;51.046;13.692;2022-07-12T12:52:25;100839.03;;;34.03
70819;BMP280;58439;51.046;13.692;2022-07-12T12:54:54;100836.31;;;36.22
70819;BMP280;58439;51.046;13.692;2022-07-12T12:57:23;100833.47;;;38.26
70819;BMP280;58439;51.046;13.692;2022-07-12T13:00:32;100840.19;;;37.12
70819;BMP280;58439;51.046;13.692;2022-07-12T13:03:33;100839.59;;;36.31
70819;BMP280;58439;51.046;13.692;2022-07-12T13:06:01;100828.63;;;38.49
70819;BMP280;58439;51.046;13.692;2022-07-12T13:08:55;100839.47;;;38.01
70819;BMP280;58439;51.046;13.692;2022-07-12T13:11:49;100832.28;;;33.24
70819;BMP280;58439;51.046;13.692;2022-07-12T13:14:42;100836.34;;;30.53
70819;BMP280;58439;51.046;13.692;2022-07-12T13:17:09;100839.22;;;30.82
70819;BMP280;58439;51.046;13.692;2022-07-12T13:19:37;100835.81;;;34.96
70819;BMP280;58439;51.046;13.692;2022-07-12T13:22:04;100827.38;;;36.90
70819;BMP280;58439;51.046;13.692;2022-07-12T13:24:32;100830.88;;;38.87
70819;BMP280;58439;51.046;13.692;2022-07-12T13:26:59;100817.50;;;39.37
70819;BMP280;58439;51.046;13.692;2022-07-12T13:29:27;100826.75;;;40.69
70819;BMP280;58439;51.046;13.692;2022-07-12T13:31:54;100826.75;;;40.33
70819;BMP280;58439;51.046;13.692;2022-07-12T13:34:23;100828.69;;;39.07
70819;BMP280;58439;51.046;13.692;2022-07-12T13:36:51;100827.50;;;34.61
70819;BMP280;58439;51.046;13.692;2022-07-12T13:39:19;100834.69;;;33.25
70819;BMP280;58439;51.046;13.692;2022-07-12T13:42:06;100836.78;;;36.93
70819;BMP280;58439;51.046;13.692;2022-07-12T13:44:33;100829.50;;;36.55
70819;BMP280;58439;51.046;13.692;2022-07-12T13:47:04;100827.34;;;33.38
70819;BMP280;58439;51.046;13.692;2022-07-12T13:49:31;100823.50;;;33.27
70819;BMP280;58439;51.046;13.692;2022-07-12T13:51:59;100813.56;;;37.02
70819;BMP280;58439;51.046;13.692;2022-07-12T13:54:28;100814.38;;;35.77
70819;BMP280;58439;51.046;13.692;2022-07-12T13:56:55;100812.97;;;34.14
70819;BMP280;58439;51.046;13.692;2022-07-12T13:59:23;100819.84;;;32.45
70819;BMP280;58439;51.046;13.692;2022-07-12T14:01:50;100816.00;;;35.81
70819;BMP280;58439;51.046;13.692;2022-07-12T14:04:17;100823.28;;;39.21
70819;BMP280;58439;51.046;13.692;2022-07-12T14:06:44;100815.69;;;41.15
70819;BMP280;58439;51.046;13.692;2022-07-12T14:09:13;100811.63;;;41.40
70819;BMP280;58439;51.046;13.692;2022-07-12T14:11:40;100813.38;;;40.78
70819;BMP280;58439;51.046;13.692;2022-07-12T14:14:07;100816.44;;;41.19
70819;BMP280;58439;51.046;13.692;2022-07-12T14:16:34;100819.22;;;41.15
70819;BMP280;58439;51.046;13.692;2022-07-12T14:19:01;100810.66;;;40.81
70819;BMP280;58439;51.046;13.692;2022-07-12T14:21:29;100817.75;;;40.75
70819;BMP280;58439;51.046;13.692;2022-07-12T14:26:55;100804.69;;;39.62
70819;BMP280;58439;51.046;13.692;2022-07-12T14:29:45;100816.19;;;40.21
70819;BMP280;58439;51.046;13.692;2022-07-12T14:32:29;100800.88;;;40.84
70819;BMP280;58439;51.046;13.692;2022-07-12T14:35:34;100804.41;;;40.52
70819;BMP280;58439;51.046;13.692;2022-07-12T14:38:23;100808.97;;;39.53
70819;BMP280;58439;51.046;13.692;2022-07-12T14:40:50;100805.22;;;40.49
70819;BMP280;58439;51.046;13.692;2022-07-12T14:43:17;100804.78;;;40.23
70819;BMP280;58439;51.046;13.692;2022-07-12T14:45:47;100796.59;;;40.44
70819;BMP280;58439;51.046;13.692;2022-07-12T14:48:14;100797.72;;;40.04
70819;BMP280;58439;51.046;13.692;2022-07-12T14:50:41;100791.88;;;40.41
70819;BMP280;58439;51.046;13.692;2022-07-12T14:53:08;100801.56;;;39.67
70819;BMP280;58439;51.046;13.692;2022-07-12T14:55:36;100800.13;;;40.30
70819;BMP280;58439;51.046;13.692;2022-07-12T14:58:03;100799.59;;;41.86
70819;BMP280;58439;51.046;13.692;2022-07-12T15:00:30;100785.69;;;42.82
70819;BMP280;58439;51.046;13.692;2022-07-12T15:02:58;100785.22;;;42.57
70819;BMP280;58439;51.046;13.692;2022-07-12T15:05:28;100792.66;;;40.27
70819;BMP280;58439;51.046;13.692;2022-07-12T15:07:55;100791.84;;;40.66
70819;BMP280;58439;51.046;13.692;2022-07-12T15:10:22;100788.56;;;41.24
70819;BMP280;58439;51.046;13.692;2022-07-12T15:12:50;100782.22;;;41.92
70819;BMP280;58439;51.046;13.692;2022-07-12T15:15:19;100777.53;;;42.37
70819;BMP280;58439;51.046;13.692;2022-07-12T15:17:51;100772.22;;;43.18
70819;BMP280;58439;51.046;13.692;2022-07-12T15:20:20;100777.88;;;43.64
70819;BMP280;58439;51.046;13.692;2022-07-12T15:22:47;100780.13;;;40.44
70819;BMP280;58439;51.046;13.692;2022-07-12T15:25:15;100768.72;;;37.30
70819;BMP280;58439;51.046;13.692;2022-07-12T15:28:06;100768.53;;;37.79
70819;BMP280;58439;51.046;13.692;2022-07-12T15:30:52;100768.97;;;35.84
70819;BMP280;58439;51.046;13.692;2022-07-12T15:33:47;100771.28;;;36.44
70819;BMP280;58439;51.046;13.692;2022-07-12T15:36:48;100766.63;;;38.20
70819;BMP280;58439;51.046;13.692;2022-07-12T15:39:15;100770.53;;;38.66
70819;BMP280;58439;51.046;13.692;2022-07-12T15:42:27;100770.59;;;39.53
70819;BMP280;58439;51.046;13.692;2022-07-12T15:45:22;100769.50;;;39.82
70819;BMP280;58439;51.046;13.692;2022-07-12T15:48:40;100773.34;;;39.56
70819;BMP280;58439;51.046;13.692;2022-07-12T15:51:55;100764.84;;;40.22
70819;BMP280;58439;51.046;13.692;2022-07-12T15:54:57;100753.38;;;40.87
70819;BMP280;58439;51.046;13.692;2022-07-12T15:58:10;100754.00;;;41.26
70819;BMP280;58439;51.046;13.692;2022-07-12T16:01:19;100757.50;;;41.30
70819;BMP280;58439;51.046;13.692;2022-07-12T16:50:51;100731.31;;;35.90
70819;BMP280;58439;51.046;13.692;2022-07-12T17:09:26;100743.13;;;35.40
70819;BMP280;58439;51.046;13.692;2022-07-12T19:54:32;100726.22;;;22.87
70819;BMP280;58439;51.046;13.692;2022-07-12T20:07:24;100742.72;;;22.69
70819;BMP280;58439;51.046;13.692;2022-07-12T20:17:11;100736.78;;;22.51
70819;BMP280;58439;51.046;13.692;2022-07-12T20:21:59;100750.03;;;22.46
70819;BMP280;58439;51.046;13.692;2022-07-12T20:30:03;100749.16;;;22.26
70819;BMP280;58439;51.046;13.692;2022-07-12T20:34:23;100742.38;;;22.08
70819;BMP280;58439;51.046;13.692;2022-07-12T20:38:35;100746.88;;;22.07
70819;BMP280;58439;51.046;13.692;2022-07-12T20:42:19;100738.09;;;22.02
70819;BMP280;58439;51.046;13.692;2022-07-12T20:46:22;100731.00;;;22.17
70819;BMP280;58439;51.046;13.692;2022-07-12T20:50:37;100738.63;;;22.04
70819;BMP280;58439;51.046;13.692;2022-07-12T21:04:16;100748.53;;;21.71
70819;BMP280;58439;51.046;13.692;2022-07-12T21:09:11;100738.53;;;21.57
70819;BMP280;58439;51.046;13.692;2022-07-12T21:29:50;100742.03;;;21.30
70819;BMP280;58439;51.046;13.692;2022-07-12T21:33:21;100737.91;;;21.17
70819;BMP280;58439;51.046;13.692;2022-07-12T21:37:18;100742.63;;;21.10
70819;BMP280;58439;51.046;13.692;2022-07-12T21:41:18;100742.13;;;21.13
70819;BMP280;58439;51.046;13.692;2022-07-12T21:52:34;100744.00;;;20.91
70819;BMP280;58439;51.046;13.692;2022-07-12T22:21:12;100758.56;;;19.94
70819;BMP280;58439;51.046;13.692;2022-07-12T22:50:06;100747.94;;;19.94
70819;BMP280;58439;51.046;13.692;2022-07-12T23:06:59;100751.91;;;20.25
70819;BMP280;58439;51.046;13.692;2022-07-12T23:10:33;100755.84;;;20.23
70819;BMP280;58439;51.046;13.692;2022-07-12T23:13:35;100762.28;;;20.10
70819;BMP280;58439;51.046;13.692;2022-07-12T23:17:12;100757.88;;;19.99
70819;BMP280;58439;51.046;13.692;2022-07-12T23:21:30;100753.25;;;19.94
70819;BMP280;58439;51.046;13.692;2022-07-12T23:30:07;100737.25;;;19.56
70819;BMP280;58439;51.046;13.692;2022-07-12T23:57:19;100762.50;;;18.55
